Terminal Aerodrome Forecast
Issued by NWS Twin Cities, MN

Home | Current Version | Previous Version | Text Only | Print | Product List | Glossary Off
Versions: 1 2 3 4 5 6 7 8 9 10 11 12 13 14 15 16 17 18 19 20 21 22 23 24 25 26 27 28

000
FTUS43 KMPX 190800 AAA
TAFMSP
TAF AMD
KMSP 190847Z 1909/2012 23008KT 6SM -SN SCT017 OVC035
     FM191100 28016G23KT P6SM SCT017 OVC030
     FM191500 29020G31KT P6SM OVC025
     FM192300 28012G20KT P6SM BKN035
     FM200200 27010KT P6SM SCT040=

USA.gov is the U.S. government's official web portal to all federal, state and local government web resources and services.